Latest Weather Observations for Cleve Airport

IDS60801

Issued at 10:21 am CST Tuesday 16 August 2022 (issued every 10 minutes, with the page automatically refreshed every 10 minutes)

About weather observations | Map of weather stations | Latest weather observations for SA | Other Formats
Station Details ID: 018116 Name: CLEVE AERODROME Lat: -33.71 Lon: 136.50 Height: 175.0 m
Data from the previous 72 hours. | See also: Recent months at Cleve Airport
Date/Time
CST
Temp
°C
App
Temp
°C
Dew
Point
°C
Rel
Hum
%
Delta-T
°C
Wind Press
QNH
hPa
Press
MSL
hPa
Rain since
9am
mm
Dir  Spd
km/h
Gust
km/h
Spd
kts
Gust
kts
16/10:00am 11.7 9.4 8.9 83 1.4 W 11 15 6 8 1021.6 1021.7 0.0
16/09:30am 11.0 8.6 8.8 86 1.1 W 11 15 6 8 1021.2 1021.3 0.0
16/09:00am 10.2 7.8 8.5 89 0.8 WNW 11 15 6 8 1021.3 1021.4 7.6
16/08:30am 9.1 6.5 7.9 92 0.6 WNW 11 15 6 8 1021.2 1021.3 7.6
16/08:00am 8.5 5.5 7.6 94 0.4 WNW 13 17 7 9 1020.7 1020.8 7.6
16/07:30am 7.5 4.2 6.6 94 0.4 W 13 17 7 9 1020.2 1020.2 7.6
16/07:00am 6.9 3.9 6.0 94 0.4 W 11 13 6 7 1019.6 1019.6 7.6
16/06:30am 7.4 4.1 6.5 94 0.4 W 13 15 7 8 1019.3 1019.3 7.6
16/06:00am 7.5 4.2 6.6 94 0.4 WNW 13 17 7 9 1019.0 1019.0 7.6
16/05:30am 7.4 4.1 6.3 93 0.5 W 13 17 7 9 1018.9 1018.9 7.6
16/05:00am 7.7 4.5 6.8 94 0.4 W 13 17 7 9 1019.0 1019.0 7.4
16/04:30am 7.8 4.2 6.9 94 0.4 W 15 19 8 10 1018.7 1018.7 7.4
16/04:00am 7.8 4.6 6.9 94 0.4 W 13 19 7 10 1018.5 1018.5 7.4
16/03:30am 8.1 4.2 7.0 93 0.5 WNW 17 20 9 11 1018.3 1018.3 7.4
16/03:00am 8.3 4.8 7.2 93 0.5 WNW 15 19 8 10 1018.1 1018.1 7.4
16/02:30am 8.5 5.1 7.6 94 0.4 W 15 20 8 11 1018.1 1018.1 7.4
16/02:00am 8.3 4.8 7.4 94 0.4 W 15 19 8 10 1017.9 1018.0 7.4
16/01:30am 8.4 5.4 7.6 95 0.4 W 13 17 7 9 1017.8 1017.9 7.4
16/01:00am 8.1 4.6 7.2 94 0.4 WNW 15 17 8 9 1017.6 1017.7 7.4
16/12:30am 8.2 4.3 7.3 94 0.4 W 17 20 9 11 1017.5 1017.6 7.4
16/12:00am 8.4 5.0 7.5 94 0.4 W 15 19 8 10 1017.8 1017.9 7.4
 
Date/Time
CST
Temp
°C
App
Temp
°C
Dew
Point
°C
Rel
Hum
%
Delta-T
°C
Wind Press
QNH
hPa
Press
MSL
hPa
Rain since
9am
mm
Dir  Spd
km/h
Gust
km/h
Spd
kts
Gust
kts
15/11:30pm 8.7 5.3 7.8 94 0.4 WSW 15 19 8 10 1017.7 1017.8 7.4
15/11:00pm 8.6 5.2 7.8 95 0.4 W 15 20 8 11 1017.4 1017.5 7.4
15/10:30pm 8.5 4.4 7.7 95 0.4 W 19 24 10 13 1017.5 1017.6 7.4
15/10:00pm 8.4 5.0 7.5 94 0.4 W 15 20 8 11 1016.9 1017.0 7.4
15/09:30pm 8.5 4.7 7.6 94 0.4 W 17 20 9 11 1016.9 1017.0 7.4
15/09:00pm 8.5 4.7 7.6 94 0.4 W 17 20 9 11 1016.8 1016.9 7.4
15/08:30pm 8.8 5.0 7.7 93 0.5 WSW 17 24 9 13 1016.5 1016.6 7.4
15/08:00pm 9.0 4.9 7.9 93 0.5 WSW 19 22 10 12 1016.1 1016.2 7.4
15/07:30pm 8.7 4.5 7.5 92 0.6 WSW 19 24 10 13 1015.6 1015.7 7.4
15/07:00pm 8.9 4.8 7.7 92 0.6 WSW 19 26 10 14 1015.3 1015.3 7.4
15/06:30pm 8.5 4.6 7.3 92 0.6 W 17 20 9 11 1014.8 1014.8 7.4
15/06:00pm 8.4 5.2 7.0 91 0.7 WSW 13 19 7 10 1014.3 1014.3 7.4
15/05:30pm 9.1 5.3 7.5 90 0.8 SW 17 22 9 12 1013.8 1013.8 7.4
15/05:00pm 9.4 3.1 7.5 88 0.9 SSW 30 44 16 24 1013.7 1013.7 7.2
15/04:50pm 10.1 4.0 8.4 89 0.8 SSW 30 48 16 26 1013.3 1013.3 7.2
15/04:30pm 10.7 5.2 9.0 89 0.9 SSW 28 41 15 22 1013.2 1013.2 7.0
15/04:00pm 10.6 4.4 9.5 93 0.6 SW 32 43 17 23 1012.7 1012.7 7.0
15/03:30pm 10.5 5.1 9.4 93 0.6 SSW 28 46 15 25 1012.2 1012.2 6.4
15/03:00pm 12.1 8.6 10.2 88 1.0 SW 19 32 10 17 1011.3 1011.4 2.8
15/02:30pm 12.9 10.2 10.4 85 1.3 S 15 20 8 11 1010.3 1010.3 0.6
15/02:00pm 12.4 9.4 10.6 89 0.9 SSE 17 26 9 14 1010.1 1010.1 0.6
15/01:30pm 13.9 11.6 11.9 88 1.1 SSW 15 22 8 12 1010.4 1010.4 0.2
15/01:00pm 13.4 10.2 11.1 86 1.2 S 19 26 10 14 1010.6 1010.6 0.2
15/12:30pm 13.1 8.9 11.0 87 1.1 SSW 24 35 13 19 1010.9 1011.0 0.2
15/12:00pm 14.0 9.7 10.8 81 1.7 W 24 32 13 17 1011.0 1011.1 0.0
15/11:30am 13.8 10.5 11.7 87 1.1 W 20 28 11 15 1011.1 1011.2 0.0
15/11:00am 12.4 8.5 10.8 90 0.8 W 22 30 12 16 1011.5 1011.6 0.0
15/10:30am 11.8 7.9 10.7 93 0.6 W 22 28 12 15 1011.3 1011.4 0.0
15/10:00am 11.6 7.9 10.3 92 0.7 WNW 20 30 11 16 1011.5 1011.6 0.0
15/09:30am 11.5 7.4 10.2 92 0.7 WNW 22 32 12 17 1011.2 1011.3 0.0
15/09:00am 10.6 6.7 9.5 93 0.6 WNW 20 30 11 16 1010.9 1011.0 1.0
15/08:30am 10.6 6.8 9.7 94 0.5 WNW 20 26 11 14 1011.1 1011.2 1.0
15/08:00am 9.8 5.9 8.7 93 0.5 W 19 26 10 14 1010.9 1011.0 1.0
15/07:30am 9.2 5.1 8.0 92 0.6 WNW 19 24 10 13 1010.8 1010.9 1.0
15/07:00am 8.7 5.6 7.2 90 0.7 NW 13 19 7 10 1010.7 1010.7 0.8
15/06:30am 9.6 4.2 6.5 81 1.5 WNW 24 35 13 19 1010.7 1010.7 0.0
15/06:00am 10.4 6.1 5.4 71 2.3 NW 17 26 9 14 1010.5 1010.5 0.0
15/05:30am 10.5 6.5 4.9 68 2.6 NW 15 20 8 11 1010.8 1010.9 0.0
15/05:00am 10.3 6.4 5.3 71 2.3 NNW 15 19 8 10 1010.6 1010.6 0.0
15/04:30am 9.6 5.7 5.2 74 2.0 NNW 15 20 8 11 1010.5 1010.5 0.0
15/04:00am 9.8 5.5 5.4 74 2.0 NW 17 20 9 11 1010.7 1010.7 0.0
15/03:30am 10.0 5.4 5.6 74 2.0 NNW 19 22 10 12 1010.8 1010.9 0.0
15/03:00am 9.9 7.3 6.3 78 1.7 NW 9 17 5 9 1011.1 1011.2 0.0
15/02:30am 9.7 7.3 6.8 82 1.4 N 9 11 5 6 1011.4 1011.5 0.0
15/02:00am 9.1 8.5 7.5 90 0.8 CALM 0 0 0 0 1011.7 1011.8 0.0
15/01:30am 9.0 6.8 7.8 92 0.6 NW 9 13 5 7 1011.9 1012.0 0.0
15/01:00am 9.0 6.8 7.9 93 0.5 NNW 9 11 5 6 1012.4 1012.4 0.0
15/12:30am 8.7 6.4 7.5 92 0.6 N 9 11 5 6 1012.8 1012.8 0.0
15/12:00am 9.6 7.1 8.4 92 0.6 N 11 13 6 7 1013.0 1013.0 0.0
 
Date/Time
CST
Temp
°C
App
Temp
°C
Dew
Point
°C
Rel
Hum
%
Delta-T
°C
Wind Press
QNH
hPa
Press
MSL
hPa
Rain since
9am
mm
Dir  Spd
km/h
Gust
km/h
Spd
kts
Gust
kts
14/11:30pm 9.4 7.7 8.2 92 0.6 NW 7 9 4 5 1013.3 1013.3 0.0
14/11:00pm 9.4 7.3 8.2 92 0.6 NW 9 9 5 5 1013.7 1013.7 0.0
14/10:30pm 9.3 7.7 7.9 91 0.7 NNW 6 7 3 4 1013.7 1013.7 0.0
14/10:00pm 9.9 8.2 8.5 91 0.7 NW 7 9 4 5 1014.3 1014.3 0.0
14/09:30pm 9.8 8.1 8.2 90 0.8 NW 7 9 4 5 1014.2 1014.2 0.0
14/09:00pm 10.1 8.0 8.4 89 0.8 NW 9 11 5 6 1014.3 1014.3 0.0
14/08:30pm 10.6 8.6 8.7 88 0.9 WNW 9 13 5 7 1014.4 1014.4 0.0
14/08:00pm 10.8 8.5 8.9 88 0.9 NW 11 13 6 7 1014.4 1014.4 0.0
14/07:30pm 11.1 8.9 9.4 89 0.9 WNW 11 17 6 9 1014.7 1014.7 0.0
14/07:00pm 11.1 8.5 9.4 89 0.9 W 13 19 7 10 1014.5 1014.5 0.0
14/06:30pm 11.3 8.7 9.4 88 1.0 W 13 17 7 9 1014.1 1014.1 0.0
14/06:00pm 11.8 7.8 9.2 84 1.3 W 20 26 11 14 1014.1 1014.1 0.0
14/05:30pm 12.6 10.0 9.2 80 1.7 W 13 20 7 11 1013.8 1013.8 0.0
14/05:00pm 13.5 10.0 8.6 72 2.5 W 17 24 9 13 1013.8 1013.8 0.0
14/04:30pm 13.9 10.4 8.7 71 2.6 W 17 22 9 12 1014.1 1014.1 0.0
14/04:00pm 13.7 10.1 8.5 71 2.6 W 17 22 9 12 1014.2 1014.2 0.0
14/03:30pm 14.2 10.5 7.9 66 3.2 WNW 17 22 9 12 1014.2 1014.2 0.0
14/03:00pm 14.8 10.9 7.1 60 3.8 W 17 24 9 13 1014.3 1014.3 0.0
14/02:30pm 14.5 10.9 6.8 60 3.8 WNW 15 24 8 13 1014.4 1014.4 0.0
14/02:00pm 15.0 11.9 8.9 67 3.1 W 15 24 8 13 1014.7 1014.7 0.0
14/01:30pm 14.2 11.0 8.6 69 2.8 WNW 15 22 8 12 1015.1 1015.1 0.0
14/01:00pm 13.0 9.4 8.5 74 2.3 WNW 17 24 9 13 1015.7 1015.8 0.0
14/12:30pm 13.3 9.5 9.0 75 2.2 WNW 19 28 10 15 1016.1 1016.2 0.0
14/12:00pm 12.6 8.7 8.7 77 2.0 WNW 19 24 10 13 1016.6 1016.7 0.0
14/11:30am 12.4 8.5 9.6 83 1.4 W 20 28 11 15 1017.1 1017.2 0.0
14/11:00am 12.2 8.3 9.6 84 1.3 W 20 26 11 14 1017.2 1017.3 0.0
14/10:30am 11.9 8.1 9.8 87 1.1 W 20 26 11 14 1017.3 1017.4 0.0
14/10:00am 11.1 7.5 9.7 91 0.7 WNW 19 24 10 13 1017.2 1017.3 0.0
14/09:30am 10.5 7.2 9.6 94 0.5 WNW 17 24 9 13 1017.2 1017.3 0.0
14/09:00am 9.7 5.9 8.9 95 0.4 WNW 19 28 10 15 1017.2 1017.3 2.8
14/08:30am 9.3 6.2 8.7 96 0.3 WNW 15 20 8 11 1017.0 1017.1 2.8
14/08:00am 8.7 5.8 8.1 96 0.3 WNW 13 17 7 9 1016.8 1016.9 2.8
14/07:30am 8.1 5.1 7.5 96 0.3 WNW 13 20 7 11 1016.3 1016.4 2.8
14/07:00am 8.3 4.5 7.7 96 0.3 WNW 17 24 9 13 1016.3 1016.4 2.8
14/06:30am 8.3 4.5 7.7 96 0.3 WNW 17 24 9 13 1016.2 1016.3 2.8
14/06:00am 8.1 4.3 7.5 96 0.3 WNW 17 22 9 12 1016.0 1016.1 2.8
14/05:30am 8.1 4.7 7.5 96 0.3 WNW 15 19 8 10 1015.8 1015.9 2.8
14/05:00am 8.3 4.9 7.7 96 0.3 WNW 15 22 8 12 1015.8 1015.9 2.8
14/04:30am 8.4 4.7 7.8 96 0.3 WNW 17 22 9 12 1015.9 1016.0 2.8
14/04:00am 8.3 4.5 7.7 96 0.3 WNW 17 22 9 12 1015.9 1016.0 2.8
14/03:30am 8.3 4.5 7.7 96 0.3 WNW 17 24 9 13 1015.9 1016.0 2.8
14/03:00am 8.3 4.2 7.7 96 0.3 WNW 19 28 10 15 1015.9 1016.0 2.8
14/02:30am 8.3 4.5 7.7 96 0.3 WNW 17 26 9 14 1016.0 1016.1 2.8
14/02:00am 8.5 5.2 7.9 96 0.3 WNW 15 20 8 11 1016.1 1016.2 2.8
14/01:30am 8.5 4.8 7.9 96 0.3 WNW 17 24 9 13 1016.2 1016.3 2.8
14/01:00am 8.5 4.4 7.9 96 0.3 WNW 19 24 10 13 1016.3 1016.4 2.8
14/12:30am 8.6 5.6 7.8 95 0.4 WNW 13 22 7 12 1016.5 1016.6 2.8
14/12:00am 9.0 5.4 8.4 96 0.3 W 17 20 9 11 1016.8 1016.9 2.8
 
Date/Time
CST
Temp
°C
App
Temp
°C
Dew
Point
°C
Rel
Hum
%
Delta-T
°C
Wind Press
QNH
hPa
Press
MSL
hPa
Rain since
9am
mm
Dir  Spd
km/h
Gust
km/h
Spd
kts
Gust
kts
13/11:30pm 9.1 5.5 8.3 95 0.4 WNW 17 22 9 12 1017.0 1017.1 2.8
13/11:00pm 9.0 5.4 8.2 95 0.4 W 17 22 9 12 1017.0 1017.1 2.8
13/10:30pm 9.1 4.5 8.3 95 0.4 WNW 22 30 12 16 1017.0 1017.1 2.8
13/10:00pm 9.1 4.9 8.2 94 0.4 WNW 20 28 11 15 1017.0 1017.1 2.8
13/09:30pm 9.1 4.9 8.2 94 0.4 W 20 30 11 16 1017.2 1017.3 2.8
13/09:00pm 8.9 4.3 8.0 94 0.4 WNW 22 32 12 17 1017.3 1017.4 2.8
13/08:30pm 9.1 4.5 8.2 94 0.4 W 22 32 12 17 1017.2 1017.3 2.8
13/08:00pm 9.4 5.3 8.5 94 0.4 WNW 20 32 11 17 1017.0 1017.1 2.8
13/07:30pm 9.5 5.0 8.6 94 0.4 W 22 30 12 16 1016.8 1016.9 2.8
13/07:00pm 9.6 4.8 8.7 94 0.4 W 24 35 13 19 1016.6 1016.7 2.8
13/06:30pm 9.6 5.1 8.7 94 0.4 W 22 33 12 18 1016.4 1016.5 2.6
13/06:00pm 9.8 4.6 8.7 93 0.5 W 26 39 14 21 1016.2 1016.3 2.0
13/05:30pm 10.2 5.4 9.0 92 0.6 W 24 32 13 17 1016.0 1016.1 1.6
13/05:00pm 10.8 6.5 9.2 90 0.8 W 22 32 12 17 1015.9 1016.0 1.2
13/04:30pm 10.9 5.8 9.3 90 0.8 W 26 33 14 18 1015.7 1015.8 1.2
13/04:00pm 10.7 6.8 9.3 91 0.7 W 20 32 11 17 1015.6 1015.7 1.2
13/03:30pm 11.0 6.3 9.3 89 0.9 W 24 33 13 18 1015.5 1015.5 1.0
13/03:00pm 11.7 6.8 8.4 80 1.6 W 24 35 13 19 1015.6 1015.7 0.0
13/02:30pm 11.9 6.2 8.2 78 1.8 WSW 28 37 15 20 1015.6 1015.7 0.0
13/02:00pm 12.9 7.2 8.4 74 2.3 WSW 28 41 15 22 1015.6 1015.7 0.0
13/01:30pm 13.0 6.9 8.3 73 2.4 WSW 30 41 16 22 1016.1 1016.2 0.0
13/01:00pm 12.0 5.2 7.9 76 2.0 WSW 33 43 18 23 1016.5 1016.6 0.0
13/12:30pm 11.8 5.7 8.3 79 1.7 WSW 30 44 16 24 1016.8 1016.9 0.0
13/12:00pm 12.5 5.8 8.2 75 2.1 WSW 33 44 18 24 1017.0 1017.1 0.0
13/11:30am 12.2 5.9 7.5 73 2.3 WSW 30 43 16 23 1017.3 1017.4 0.0
13/11:00am 11.8 5.7 6.7 71 2.4 W 28 41 15 22 1017.5 1017.6 0.0
13/10:30am 11.5 6.0 7.4 76 2.0 W 26 35 14 19 1017.6 1017.7 0.0

Other formats

Comma delimited format used in spreadsheet applications
http://www.bom.gov.au/fwo/IDS60801/IDS60801.94662.axf

JavaScript Object Notation format (JSON) in row-major order
http://www.bom.gov.au/fwo/IDS60801/IDS60801.94662.json

Data quality

Most of these data are generated automatically and are frequently updated. Quality checks on data are not normally performed. It is possible for incorrect values to appear. Refer to information at About Latest Weather Observations and please check the disclaimer before using these data.